Time;durP1;ratioP1;P1;durP2;ratioP2;P2;SDS_P1;SDS_P2;PMS_P1;PMS_P2;Temp;Humidity;BMP_temperature;BMP_pressure;BME280_temperature;BME280_humidity;BME280_pressure;Samples;Min_cycle;Max_cycle;Signal;HPM_P1;HPM_P2
2021/05/31 00:01:12;;;;;;;14.60;13.70;;;11.70;99.90;;;;;;5000881;28;20465;-71
2021/05/31 00:03:39;;;;;;;16.33;14.87;;;11.70;99.90;;;;;;4998508;28;20472;-71
2021/05/31 00:06:06;;;;;;;16.30;14.90;;;11.70;99.90;;;;;;5000414;28;20519;-72
2021/05/31 00:08:34;;;;;;;14.90;13.90;;;11.70;99.90;;;;;;4995451;28;20465;-71
2021/05/31 00:11:01;;;;;;;15.87;14.60;;;11.70;99.90;;;;;;4996992;28;20465;-72
2021/05/31 00:13:28;;;;;;;15.40;14.50;;;11.70;99.90;;;;;;5003059;28;20840;-71
2021/05/31 00:15:54;;;;;;;15.77;14.67;;;11.70;99.90;;;;;;5003462;28;20465;-72
2021/05/31 00:18:23;;;;;;;15.50;14.50;;;11.60;99.90;;;;;;4996905;28;20809;-73
2021/05/31 00:20:50;;;;;;;15.87;14.87;;;11.60;99.90;;;;;;4994195;28;20486;-71
2021/05/31 00:23:16;;;;;;;16.10;14.90;;;11.50;99.90;;;;;;4998866;28;20469;-73
2021/05/31 00:25:44;;;;;;;16.33;14.70;;;11.50;99.90;;;;;;4998970;28;20469;-73
2021/05/31 00:28:12;;;;;;;15.50;14.50;;;11.60;99.90;;;;;;4992499;28;20462;-72
2021/05/31 00:30:40;;;;;;;14.90;13.90;;;11.60;99.90;;;;;;5001078;28;20547;-73
2021/05/31 00:33:06;;;;;;;15.37;14.37;;;11.60;99.90;;;;;;5002902;28;20493;-71
2021/05/31 00:35:33;;;;;;;16.00;14.90;;;11.50;99.90;;;;;;4997824;28;20446;-74
2021/05/31 00:38:00;;;;;;;14.93;14.03;;;11.50;99.90;;;;;;4998093;28;20640;-71
2021/05/31 00:40:27;;;;;;;16.17;15.07;;;11.40;99.90;;;;;;4999606;28;20464;-71
2021/05/31 00:42:55;;;;;;;15.67;14.67;;;11.30;99.90;;;;;;4998299;28;20470;-73
2021/05/31 00:45:22;;;;;;;16.20;15.10;;;11.30;99.90;;;;;;4993699;28;21713;-73
2021/05/31 00:47:50;;;;;;;16.73;15.60;;;11.20;99.90;;;;;;5001743;28;20953;-72
2021/05/31 00:50:18;;;;;;;16.33;15.33;;;11.20;99.90;;;;;;5003162;28;20469;-71
2021/05/31 00:52:44;;;;;;;17.67;16.37;;;11.10;99.90;;;;;;4998095;28;20886;-72
2021/05/31 00:55:12;;;;;;;17.03;15.77;;;11.00;99.90;;;;;;4999893;28;20485;-71
2021/05/31 00:57:39;;;;;;;16.43;15.23;;;10.90;99.90;;;;;;4999935;28;20465;-72
2021/05/31 01:00:09;;;;;;;16.90;15.60;;;10.80;99.90;;;;;;5002717;28;20468;-72
2021/05/31 01:02:36;;;;;;;17.97;16.67;;;10.70;99.90;;;;;;4999293;28;20673;-71
2021/05/31 01:05:04;;;;;;;17.03;15.83;;;10.60;99.90;;;;;;5000164;28;20465;-72
2021/05/31 01:07:38;;;;;;;17.03;15.90;;;10.60;99.90;;;;;;4998927;28;20458;-74
2021/05/31 01:10:11;;;;;;;17.40;16.20;;;10.50;99.90;;;;;;5002843;28;20822;-72
2021/05/31 01:12:46;;;;;;;18.17;16.93;;;10.50;99.90;;;;;;5000837;28;20489;-73
2021/05/31 01:15:17;;;;;;;18.03;16.57;;;10.50;99.90;;;;;;5001848;28;21269;-73
2021/05/31 01:17:52;;;;;;;17.03;15.93;;;10.50;99.90;;;;;;5003860;28;20458;-73
2021/05/31 01:20:35;;;;;;;18.03;16.93;;;10.50;99.90;;;;;;5002455;28;20568;-73
2021/05/31 01:23:03;;;;;;;17.57;16.27;;;10.50;99.90;;;;;;4998123;28;20465;-74
2021/05/31 01:25:36;;;;;;;18.33;17.03;;;10.50;99.90;;;;;;4995177;28;20471;-72
2021/05/31 01:28:28;;;;;;;17.70;16.47;;;10.50;99.90;;;;;;4997721;28;20466;-72
2021/05/31 01:30:58;;;;;;;18.13;16.40;;;10.50;99.90;;;;;;5002005;28;20457;-72
2021/05/31 01:33:30;;;;;;;17.60;16.20;;;10.50;99.90;;;;;;5002445;28;20508;-72
2021/05/31 01:35:59;;;;;;;17.63;16.50;;;10.40;99.90;;;;;;5000536;28;20458;-72
2021/05/31 01:38:27;;;;;;;17.90;16.37;;;10.40;99.90;;;;;;5002519;28;20470;-72
2021/05/31 01:40:54;;;;;;;17.10;15.90;;;10.50;99.90;;;;;;5003981;28;20541;-72
2021/05/31 01:43:22;;;;;;;17.40;16.30;;;10.60;99.90;;;;;;4997909;28;20462;-73
2021/05/31 01:45:48;;;;;;;16.80;15.73;;;10.60;99.90;;;;;;5007320;28;20477;-71
2021/05/31 01:48:16;;;;;;;16.17;15.07;;;10.50;99.90;;;;;;4998014;28;20553;-72
2021/05/31 01:50:44;;;;;;;17.20;15.90;;;10.40;99.90;;;;;;5006423;28;20843;-71
2021/05/31 01:53:12;;;;;;;17.40;16.10;;;10.40;99.90;;;;;;5005623;28;20485;-72
2021/05/31 01:55:40;;;;;;;16.30;15.10;;;10.40;99.90;;;;;;5000933;28;20999;-71
2021/05/31 01:58:08;;;;;;;16.77;15.67;;;10.40;99.90;;;;;;4999357;28;20474;-71
2021/05/31 02:00:35;;;;;;;17.33;16.23;;;10.40;99.90;;;;;;5005043;28;20469;-71
2021/05/31 02:03:02;;;;;;;17.47;16.17;;;10.30;99.90;;;;;;5001756;28;20462;-72
2021/05/31 02:05:30;;;;;;;18.27;16.67;;;10.20;99.90;;;;;;4998220;28;20461;-73
2021/05/31 02:07:56;;;;;;;18.00;16.80;;;10.20;99.90;;;;;;4999994;28;20473;-71
2021/05/31 02:10:22;;;;;;;18.50;16.80;;;10.20;99.90;;;;;;5001017;28;20457;-74
2021/05/31 02:12:52;;;;;;;18.10;16.80;;;10.10;99.90;;;;;;4993882;28;21175;-72
2021/05/31 02:15:22;;;;;;;18.90;17.50;;;10.00;99.90;;;;;;4988679;28;20470;-72
2021/05/31 02:17:56;;;;;;;16.90;15.80;;;10.00;99.90;;;;;;4995490;28;20564;-73
2021/05/31 02:20:25;;;;;;;17.53;16.37;;;10.00;99.90;;;;;;4998369;28;20466;-72
2021/05/31 02:22:56;;;;;;;19.37;17.87;;;10.00;99.90;;;;;;5000615;28;20469;-72
2021/05/31 02:25:23;;;;;;;18.17;16.97;;;10.00;99.90;;;;;;4996687;28;20470;-72
2021/05/31 02:27:51;;;;;;;17.60;16.30;;;9.90;99.90;;;;;;4998659;28;20458;-71
2021/05/31 02:30:18;;;;;;;19.20;17.60;;;9.90;99.90;;;;;;4996528;28;20495;-71
2021/05/31 02:32:55;;;;;;;18.37;17.07;;;10.00;99.90;;;;;;4999964;28;20501;-73
2021/05/31 02:35:23;;;;;;;18.37;17.07;;;9.90;99.90;;;;;;4998722;28;20469;-73
2021/05/31 02:37:50;;;;;;;18.70;17.33;;;9.80;99.90;;;;;;5004400;28;20465;-72
2021/05/31 02:40:19;;;;;;;19.20;17.70;;;9.80;99.90;;;;;;5000820;28;20499;-73
2021/05/31 02:42:47;;;;;;;18.70;17.20;;;9.70;99.90;;;;;;5000234;28;20894;-73
2021/05/31 02:45:15;;;;;;;19.10;17.70;;;9.70;99.90;;;;;;5000485;28;20469;-73
2021/05/31 02:47:42;;;;;;;19.33;17.90;;;9.70;99.90;;;;;;4995257;28;20994;-72
2021/05/31 02:50:10;;;;;;;19.30;17.77;;;9.60;99.90;;;;;;5008649;28;20468;-73
2021/05/31 02:52:39;;;;;;;19.03;17.73;;;9.70;99.90;;;;;;5002486;28;20540;-73
2021/05/31 02:55:08;;;;;;;19.83;18.43;;;9.60;99.90;;;;;;4999236;28;20491;-72
2021/05/31 02:57:36;;;;;;;17.73;16.57;;;9.60;99.90;;;;;;4999160;28;20901;-72
2021/05/31 03:00:04;;;;;;;19.17;17.70;;;9.60;99.90;;;;;;4999920;28;20465;-72
2021/05/31 03:02:30;;;;;;;19.53;17.93;;;9.60;99.90;;;;;;4995913;28;20504;-71
2021/05/31 03:04:56;;;;;;;20.83;19.43;;;9.60;99.90;;;;;;5000923;28;20470;-71
2021/05/31 03:07:23;;;;;;;20.83;19.33;;;9.60;99.90;;;;;;4999693;28;20533;-72
2021/05/31 03:09:49;;;;;;;20.73;19.13;;;9.50;99.90;;;;;;4999183;28;20832;-72
2021/05/31 03:12:16;;;;;;;19.83;18.23;;;9.60;99.90;;;;;;5003581;28;20494;-73
2021/05/31 03:14:44;;;;;;;18.80;17.40;;;9.60;99.90;;;;;;4996219;28;20480;-73
2021/05/31 03:17:11;;;;;;;19.70;18.20;;;9.60;99.90;;;;;;5001876;28;20484;-72
2021/05/31 03:19:37;;;;;;;18.27;17.07;;;9.70;99.90;;;;;;4994853;28;20975;-72
2021/05/31 03:22:04;;;;;;;18.70;17.40;;;9.60;99.90;;;;;;5001950;28;20526;-72
2021/05/31 03:24:31;;;;;;;19.53;18.10;;;9.60;99.90;;;;;;5001390;28;20487;-72
2021/05/31 03:26:57;;;;;;;19.63;18.33;;;9.50;99.90;;;;;;5002075;28;20460;-73
2021/05/31 03:29:24;;;;;;;18.50;17.10;;;9.40;99.90;;;;;;4998695;28;20480;-74
2021/05/31 03:31:52;;;;;;;19.50;18.20;;;9.40;99.90;;;;;;5002713;28;20504;-74
2021/05/31 03:34:18;;;;;;;21.00;19.30;;;9.40;99.90;;;;;;5003102;28;20890;-71
2021/05/31 03:36:46;;;;;;;20.83;19.37;;;9.40;99.90;;;;;;4999974;28;20505;-71
2021/05/31 03:39:13;;;;;;;20.67;19.13;;;9.40;99.90;;;;;;4998418;28;20462;-71
2021/05/31 03:41:39;;;;;;;20.40;18.83;;;9.30;99.90;;;;;;5001692;28;20704;-73
2021/05/31 03:44:06;;;;;;;20.07;18.77;;;9.30;99.90;;;;;;5002716;28;20504;-72
2021/05/31 03:46:32;;;;;;;23.53;21.73;;;9.30;99.90;;;;;;5005981;28;20510;-72
2021/05/31 03:49:00;;;;;;;19.90;18.47;;;9.30;99.90;;;;;;4996844;28;20465;-72
2021/05/31 03:51:28;;;;;;;21.00;19.10;;;9.30;99.90;;;;;;4998451;28;20569;-71
2021/05/31 03:53:54;;;;;;;19.63;18.13;;;9.20;99.90;;;;;;4996606;28;20469;-71
2021/05/31 03:56:20;;;;;;;20.73;19.13;;;9.10;99.90;;;;;;5001416;28;20482;-72
2021/05/31 03:58:48;;;;;;;20.90;19.50;;;9.10;99.90;;;;;;5005202;28;20849;-72
2021/05/31 04:01:17;;;;;;;21.37;19.57;;;9.10;99.90;;;;;;5000888;28;20833;-72
2021/05/31 04:03:44;;;;;;;20.40;19.00;;;9.10;99.90;;;;;;4997995;28;20487;-72
2021/05/31 04:06:21;;;;;;;19.50;18.10;;;9.10;99.90;;;;;;5005571;28;20679;-72
2021/05/31 04:11:36;;;;;;;21.40;19.60;;;9.20;99.90;;;;;;5003812;28;20788;-72
2021/05/31 04:14:04;;;;;;;21.50;20.00;;;9.30;99.90;;;;;;5000213;28;20535;-72
2021/05/31 04:16:31;;;;;;;20.97;19.23;;;9.40;99.90;;;;;;4998221;28;20461;-72
2021/05/31 04:18:58;;;;;;;20.83;19.23;;;9.40;99.90;;;;;;5000353;28;20457;-73
2021/05/31 04:21:26;;;;;;;20.87;19.40;;;9.40;99.90;;;;;;5000273;28;20560;-72
2021/05/31 04:23:52;;;;;;;21.30;19.70;;;9.50;99.90;;;;;;4996925;28;20823;-73
2021/05/31 04:26:18;;;;;;;20.93;19.33;;;9.50;99.90;;;;;;4997410;28;20651;-74
2021/05/31 04:28:45;;;;;;;20.33;18.80;;;9.60;99.90;;;;;;4998172;28;20521;-72
2021/05/31 04:31:12;;;;;;;19.97;18.57;;;9.70;99.90;;;;;;5004949;28;20477;-72
2021/05/31 04:33:38;;;;;;;20.43;18.83;;;9.60;99.90;;;;;;4996929;28;20864;-72
2021/05/31 04:36:05;;;;;;;20.73;19.13;;;9.60;99.90;;;;;;4993856;28;20523;-72
2021/05/31 04:38:34;;;;;;;20.73;19.30;;;9.70;99.90;;;;;;5005916;28;20461;-75
2021/05/31 04:41:00;;;;;;;22.07;20.37;;;9.70;99.90;;;;;;5004798;28;20472;-74
2021/05/31 04:43:27;;;;;;;20.00;18.70;;;9.70;99.90;;;;;;5001804;28;20864;-72
2021/05/31 04:45:53;;;;;;;23.23;20.80;;;9.70;99.90;;;;;;5005492;28;20523;-71
2021/05/31 04:48:20;;;;;;;23.10;21.20;;;9.70;99.90;;;;;;4999522;28;20474;-72
2021/05/31 04:50:47;;;;;;;22.90;20.90;;;9.80;99.90;;;;;;5003688;28;20472;-72
2021/05/31 04:53:13;;;;;;;21.87;20.03;;;9.90;99.90;;;;;;5000081;28;20473;-72
2021/05/31 04:55:41;;;;;;;23.50;21.40;;;10.00;99.90;;;;;;5001032;28;20486;-71
2021/05/31 04:58:08;;;;;;;23.30;21.50;;;10.10;99.90;;;;;;5002028;28;20536;-73
2021/05/31 05:00:34;;;;;;;24.83;22.60;;;10.20;99.90;;;;;;5000556;28;20539;-72
2021/05/31 05:03:01;;;;;;;23.97;22.07;;;10.30;99.90;;;;;;4999031;28;20512;-72
2021/05/31 05:05:27;;;;;;;23.77;21.70;;;10.40;99.90;;;;;;5003925;28;20449;-72
2021/05/31 05:07:54;;;;;;;26.20;23.43;;;10.50;99.90;;;;;;5000749;28;20583;-74
2021/05/31 05:10:22;;;;;;;26.30;23.90;;;10.60;99.90;;;;;;5002569;28;20491;-72
2021/05/31 05:12:52;;;;;;;25.20;22.80;;;10.70;99.90;;;;;;5003718;28;20494;-72
2021/05/31 05:15:20;;;;;;;22.53;20.70;;;10.90;99.90;;;;;;5004632;28;20477;-72
2021/05/31 05:17:48;;;;;;;25.00;22.90;;;11.10;99.90;;;;;;5004505;28;20523;-73
2021/05/31 05:20:16;;;;;;;28.30;22.60;;;11.20;99.90;;;;;;5008974;28;20460;-72
2021/05/31 05:22:42;;;;;;;25.70;23.50;;;11.40;99.90;;;;;;5003406;28;20960;-72
2021/05/31 05:25:10;;;;;;;24.87;22.77;;;11.60;99.90;;;;;;4999003;28;20837;-72
2021/05/31 05:27:37;;;;;;;24.07;21.83;;;11.80;99.90;;;;;;5001938;28;20465;-72
2021/05/31 05:30:06;;;;;;;23.43;21.10;;;12.10;99.90;;;;;;4997667;28;20486;-72
2021/05/31 05:32:34;;;;;;;25.10;23.00;;;12.20;99.90;;;;;;5000341;28;20849;-72
2021/05/31 05:35:08;;;;;;;23.20;21.30;;;12.40;99.90;;;;;;4990513;28;20479;-71
2021/05/31 05:37:42;;;;;;;23.37;21.20;;;12.60;99.90;;;;;;4999794;28;20778;-72
2021/05/31 05:43:07;;;;;;;23.70;21.60;;;12.90;99.90;;;;;;5004049;28;20972;-73
2021/05/31 05:45:50;;;;;;;24.63;22.30;;;13.10;99.90;;;;;;5001713;28;20458;-72
2021/05/31 05:48:16;;;;;;;23.43;21.13;;;13.20;99.90;;;;;;5000992;28;20473;-72
2021/05/31 05:50:43;;;;;;;22.37;20.40;;;13.40;99.90;;;;;;5003504;28;20523;-72
2021/05/31 05:53:10;;;;;;;22.63;20.77;;;13.70;99.90;;;;;;5002971;28;20857;-70
2021/05/31 05:55:37;;;;;;;22.50;19.90;;;13.90;99.90;;;;;;4996351;28;21008;-71
2021/05/31 05:58:04;;;;;;;21.93;20.20;;;14.10;99.90;;;;;;5005055;28;20468;-71
2021/05/31 06:00:32;;;;;;;21.70;19.70;;;14.30;99.90;;;;;;5004463;28;20847;-71
2021/05/31 06:03:00;;;;;;;22.40;20.70;;;14.50;99.90;;;;;;4992580;28;20524;-72
2021/05/31 06:05:26;;;;;;;21.13;19.50;;;14.60;99.90;;;;;;4992367;28;20883;-72
2021/05/31 06:07:53;;;;;;;22.10;20.40;;;14.70;99.90;;;;;;4996401;28;20478;-71
2021/05/31 06:10:20;;;;;;;21.90;20.10;;;14.80;99.90;;;;;;4997592;28;20551;-71
2021/05/31 06:12:46;;;;;;;20.83;19.30;;;15.00;99.90;;;;;;4998162;28;21107;-73
2021/05/31 06:15:14;;;;;;;20.47;19.00;;;15.10;99.90;;;;;;5001142;28;20473;-72
2021/05/31 06:17:41;;;;;;;19.83;18.50;;;15.20;99.90;;;;;;4995848;28;20519;-71
2021/05/31 06:20:09;;;;;;;21.67;19.97;;;15.30;99.90;;;;;;4995918;28;20558;-72
2021/05/31 06:22:39;;;;;;;20.53;18.97;;;15.40;99.90;;;;;;4998694;28;20817;-71
2021/05/31 06:25:08;;;;;;;20.63;19.13;;;15.40;99.90;;;;;;5000532;28;20470;-72
2021/05/31 06:27:35;;;;;;;22.30;20.40;;;15.50;99.90;;;;;;4997525;28;20464;-72
2021/05/31 06:30:02;;;;;;;21.07;19.37;;;15.60;99.90;;;;;;4996783;28;20647;-72
2021/05/31 06:32:28;;;;;;;20.07;18.60;;;15.70;99.90;;;;;;4994475;28;20509;-71
2021/05/31 06:34:56;;;;;;;20.67;19.17;;;15.90;99.90;;;;;;4995215;28;21163;-73
2021/05/31 06:37:24;;;;;;;21.10;19.40;;;16.00;99.90;;;;;;4997793;28;20548;-72
2021/05/31 06:39:50;;;;;;;20.47;18.80;;;16.10;99.90;;;;;;4992295;28;20831;-72
2021/05/31 06:42:17;;;;;;;19.67;18.27;;;16.10;99.90;;;;;;4990715;28;20483;-72
2021/05/31 06:44:43;;;;;;;19.67;17.57;;;16.20;99.90;;;;;;4996408;28;20833;-71
2021/05/31 06:47:10;;;;;;;18.70;17.60;;;16.30;99.90;;;;;;4999468;28;20476;-72
2021/05/31 06:49:37;;;;;;;18.20;17.10;;;16.40;99.90;;;;;;5000597;28;20892;-71
2021/05/31 06:52:04;;;;;;;18.60;17.50;;;16.40;99.90;;;;;;4991902;28;20520;-72
2021/05/31 06:54:32;;;;;;;18.67;17.47;;;16.50;99.90;;;;;;4994084;28;20849;-72
2021/05/31 06:56:59;;;;;;;20.43;18.93;;;16.70;99.90;;;;;;4997899;28;20493;-72
2021/05/31 06:59:25;;;;;;;19.53;17.83;;;16.80;99.90;;;;;;4997734;28;20466;-72
2021/05/31 07:01:53;;;;;;;19.53;17.83;;;16.80;99.90;;;;;;4993475;28;20464;-71
2021/05/31 07:04:19;;;;;;;20.17;18.77;;;16.90;99.90;;;;;;4987846;28;20540;-72
2021/05/31 07:06:45;;;;;;;19.83;18.40;;;17.10;99.90;;;;;;4990053;28;20471;-72
2021/05/31 07:09:13;;;;;;;18.77;17.60;;;17.30;99.90;;;;;;4994159;28;20466;-72
2021/05/31 07:11:44;;;;;;;19.23;18.00;;;17.40;99.90;;;;;;4992893;28;20815;-71
2021/05/31 07:14:12;;;;;;;18.80;17.50;;;17.60;99.90;;;;;;4989218;28;20471;-71
2021/05/31 07:16:40;;;;;;;18.80;17.50;;;17.60;99.90;;;;;;4991348;28;20567;-71
2021/05/31 07:19:07;;;;;;;19.30;17.50;;;17.70;99.90;;;;;;4989537;28;21056;-71
2021/05/31 07:21:34;;;;;;;19.73;18.00;;;17.90;99.90;;;;;;4992977;28;20473;-71
2021/05/31 07:24:00;;;;;;;19.97;17.70;;;18.00;99.90;;;;;;4981098;28;20510;-72
2021/05/31 07:26:26;;;;;;;18.20;17.10;;;18.00;99.90;;;;;;4990906;28;20526;-72
2021/05/31 07:28:54;;;;;;;18.97;17.60;;;18.20;99.90;;;;;;4985976;28;20484;-71
2021/05/31 07:31:21;;;;;;;19.07;17.87;;;18.30;99.90;;;;;;4998526;28;20581;-71
2021/05/31 07:33:47;;;;;;;18.80;17.50;;;18.50;99.90;;;;;;4985571;28;20495;-71
2021/05/31 07:36:15;;;;;;;18.03;16.63;;;18.50;99.90;;;;;;4991905;28;20469;-71
2021/05/31 07:38:42;;;;;;;18.87;17.40;;;18.50;99.90;;;;;;4983341;28;20470;-71
2021/05/31 07:41:08;;;;;;;18.50;17.00;;;18.70;99.90;;;;;;4990674;28;20766;-71
2021/05/31 07:43:35;;;;;;;20.27;18.57;;;18.80;99.90;;;;;;4995047;28;20464;-71
2021/05/31 07:46:03;;;;;;;18.70;16.83;;;19.00;99.90;;;;;;4992860;28;20918;-72
2021/05/31 07:48:30;;;;;;;18.37;16.83;;;19.10;99.90;;;;;;4990905;28;20566;-72
2021/05/31 07:51:14;;;;;;;18.23;16.80;;;19.10;99.90;;;;;;4994128;28;20472;-72
2021/05/31 07:53:41;;;;;;;18.67;17.20;;;19.20;99.90;;;;;;4995975;28;20485;-71
2021/05/31 07:56:08;;;;;;;18.30;16.73;;;19.20;99.90;;;;;;4988133;28;20489;-71
2021/05/31 07:58:34;;;;;;;19.30;17.60;;;19.30;99.90;;;;;;4990995;28;20988;-71
2021/05/31 08:01:03;;;;;;;18.30;17.00;;;19.50;99.90;;;;;;4998275;28;20462;-71
2021/05/31 08:03:29;;;;;;;17.60;16.20;;;19.70;99.90;;;;;;4996817;28;20524;-71
2021/05/31 08:05:56;;;;;;;17.90;16.70;;;19.90;99.90;;;;;;4995028;28;20869;-72
2021/05/31 08:08:22;;;;;;;17.33;15.93;;;20.60;99.90;;;;;;4996866;28;20489;-71
2021/05/31 08:10:49;;;;;;;17.67;15.97;;;21.30;99.90;;;;;;4996136;28;20573;-72
2021/05/31 08:13:15;;;;;;;16.90;15.90;;;22.10;99.90;;;;;;5000032;28;20481;-72
2021/05/31 08:15:41;;;;;;;17.13;16.13;;;22.60;99.90;;;;;;4999199;28;20984;-71
2021/05/31 08:18:11;;;;;;;18.50;16.80;;;23.40;99.90;;;;;;4997205;28;20471;-72
2021/05/31 08:20:38;;;;;;;18.47;17.13;;;24.20;99.90;;;;;;4999650;28;20457;-71
2021/05/31 08:23:04;;;;;;;18.27;16.40;;;25.30;99.40;;;;;;4994550;28;20454;-71
2021/05/31 08:25:31;;;;;;;18.37;16.63;;;25.40;97.20;;;;;;4998122;28;20499;-72
2021/05/31 08:27:58;;;;;;;17.07;15.50;;;25.80;96.20;;;;;;4997539;28;20470;-72
2021/05/31 08:30:25;;;;;;;18.60;17.10;;;26.20;95.30;;;;;;5001409;28;20943;-72
2021/05/31 08:32:51;;;;;;;17.93;16.17;;;26.50;94.30;;;;;;5002533;28;20488;-72
2021/05/31 08:35:19;;;;;;;17.20;16.10;;;26.20;93.20;;;;;;5000641;28;20465;-72
2021/05/31 08:37:46;;;;;;;18.30;16.90;;;26.30;93.90;;;;;;5000599;28;20473;-72
2021/05/31 08:40:13;;;;;;;17.40;16.10;;;27.20;93.00;;;;;;4996693;28;21039;-72
2021/05/31 08:42:40;;;;;;;19.17;17.67;;;27.50;91.60;;;;;;4996335;28;20466;-72
2021/05/31 08:45:10;;;;;;;18.03;16.93;;;28.40;88.40;;;;;;4998745;28;20964;-72
2021/05/31 08:47:39;;;;;;;17.23;15.90;;;28.20;88.10;;;;;;5000387;28;20469;-72
2021/05/31 08:50:07;;;;;;;18.37;16.53;;;28.50;85.30;;;;;;4997577;28;21036;-72
2021/05/31 08:52:35;;;;;;;17.97;16.57;;;29.20;82.30;;;;;;5001965;28;20559;-72
2021/05/31 08:55:01;;;;;;;17.70;16.60;;;28.00;82.20;;;;;;4998550;28;20570;-72
2021/05/31 08:57:29;;;;;;;17.97;16.57;;;28.40;83.00;;;;;;4999259;28;20493;-72
2021/05/31 08:59:55;;;;;;;16.60;15.57;;;29.10;77.30;;;;;;4998362;28;20474;-72
2021/05/31 09:02:22;;;;;;;16.57;15.67;;;30.00;72.80;;;;;;5002749;28;20462;-72
2021/05/31 09:04:51;;;;;;;16.80;15.70;;;29.80;71.70;;;;;;5000647;28;20917;-72
2021/05/31 09:07:21;;;;;;;18.10;16.93;;;28.50;67.80;;;;;;4996085;28;20477;-72
2021/05/31 09:09:52;;;;;;;17.10;15.90;;;28.50;67.50;;;;;;4999259;28;20468;-72
2021/05/31 09:12:22;;;;;;;17.70;16.50;;;28.60;65.60;;;;;;4997264;28;20578;-72
2021/05/31 09:14:54;;;;;;;15.83;14.93;;;28.70;67.00;;;;;;4999099;28;20465;-72
2021/05/31 09:17:24;;;;;;;16.93;15.93;;;28.40;69.60;;;;;;5000307;28;20644;-72
2021/05/31 09:19:51;;;;;;;16.30;15.30;;;28.60;68.00;;;;;;4999919;28;20472;-72
2021/05/31 09:22:18;;;;;;;17.13;15.93;;;29.40;66.70;;;;;;4993598;28;21044;-72
2021/05/31 09:24:56;;;;;;;15.43;14.60;;;30.00;65.80;;;;;;4994032;28;20496;-72
2021/05/31 09:27:22;;;;;;;16.87;15.70;;;30.10;64.70;;;;;;4993987;28;20493;-72
2021/05/31 09:29:56;;;;;;;17.10;15.90;;;29.70;63.90;;;;;;4994851;28;21009;-72
2021/05/31 09:32:23;;;;;;;16.77;15.57;;;29.10;65.90;;;;;;5008909;28;20484;-72
2021/05/31 09:35:04;;;;;;;17.40;16.10;;;28.60;65.20;;;;;;5005326;28;20479;-72
2021/05/31 09:37:31;;;;;;;17.00;16.00;;;28.20;64.90;;;;;;4993758;28;20473;-72
2021/05/31 09:40:00;;;;;;;17.13;15.90;;;29.30;65.90;;;;;;4991548;28;20462;-72
2021/05/31 09:42:28;;;;;;;18.20;17.00;;;29.40;64.00;;;;;;5000150;28;20484;-72
2021/05/31 09:45:03;;;;;;;16.97;15.77;;;28.10;65.90;;;;;;4990973;28;20506;-72
2021/05/31 09:47:34;;;;;;;17.07;15.77;;;28.20;65.70;;;;;;5000726;28;20453;-72
2021/05/31 09:50:00;;;;;;;16.70;15.70;;;27.90;66.70;;;;;;4992825;28;20978;-72
2021/05/31 09:52:27;;;;;;;17.87;16.70;;;29.00;64.70;;;;;;4996147;28;20508;-72
2021/05/31 09:54:54;;;;;;;17.33;16.10;;;30.40;63.50;;;;;;4993619;28;20884;-72
2021/05/31 09:57:24;;;;;;;17.63;16.50;;;30.10;60.10;;;;;;5001120;28;20469;-72
2021/05/31 09:59:54;;;;;;;17.07;16.00;;;30.10;63.60;;;;;;4997853;28;20489;-72
2021/05/31 10:02:30;;;;;;;17.87;16.13;;;30.30;60.90;;;;;;5004684;28;20880;-73
2021/05/31 10:05:04;;;;;;;16.40;15.50;;;31.00;58.10;;;;;;5001372;28;20476;-72
2021/05/31 10:07:44;;;;;;;18.47;17.17;;;30.50;59.00;;;;;;4993803;28;20467;-72
2021/05/31 10:10:11;;;;;;;16.50;15.47;;;30.80;60.10;;;;;;4998150;28;20485;-73
2021/05/31 10:12:39;;;;;;;17.43;16.30;;;30.60;57.50;;;;;;4998792;28;20485;-72
2021/05/31 10:15:08;;;;;;;16.70;15.60;;;31.40;58.00;;;;;;4996161;28;20632;-72
2021/05/31 10:17:35;;;;;;;18.43;17.13;;;30.70;57.50;;;;;;4998291;28;20477;-73
2021/05/31 10:20:03;;;;;;;17.50;16.43;;;31.70;55.10;;;;;;4999498;28;20470;-73
2021/05/31 10:22:32;;;;;;;17.10;15.80;;;32.70;55.60;;;;;;4995955;28;20821;-72
2021/05/31 10:25:01;;;;;;;18.07;17.07;;;33.00;54.60;;;;;;4997659;28;20469;-72
2021/05/31 10:27:30;;;;;;;16.80;15.90;;;32.00;53.20;;;;;;4998312;28;20678;-72
2021/05/31 10:29:59;;;;;;;17.07;15.87;;;32.20;52.10;;;;;;4999606;28;20508;-72
2021/05/31 10:32:26;;;;;;;20.20;18.20;;;31.50;52.00;;;;;;5006160;28;20465;-72
2021/05/31 10:34:53;;;;;;;16.40;15.30;;;32.00;53.50;;;;;;5004316;28;20463;-73
2021/05/31 10:37:22;;;;;;;16.80;15.80;;;32.20;53.50;;;;;;5003644;28;20819;-73
2021/05/31 10:39:59;;;;;;;19.23;17.80;;;32.20;52.00;;;;;;5005489;28;20469;-72
2021/05/31 10:42:37;;;;;;;18.43;17.03;;;31.00;51.10;;;;;;4994316;28;20473;-72
2021/05/31 10:45:25;;;;;;;17.37;16.13;;;30.40;52.50;;;;;;4993742;28;20469;-72
2021/05/31 10:47:57;;;;;;;17.83;16.50;;;30.60;53.20;;;;;;5000929;28;20979;-73
2021/05/31 10:50:31;;;;;;;17.30;16.20;;;30.60;52.10;;;;;;4998497;28;20980;-73
2021/05/31 10:52:58;;;;;;;18.43;17.23;;;31.00;53.50;;;;;;4996119;28;20863;-73
2021/05/31 10:55:26;;;;;;;18.10;16.90;;;31.20;53.00;;;;;;4995875;28;20988;-73
2021/05/31 10:57:55;;;;;;;16.63;15.70;;;31.60;52.50;;;;;;5001004;28;20473;-73
2021/05/31 11:00:25;;;;;;;17.50;16.23;;;33.00;50.40;;;;;;5006027;28;20587;-73
2021/05/31 11:03:04;;;;;;;16.37;15.27;;;33.00;50.40;;;;;;5002277;28;20591;-72
2021/05/31 11:05:33;;;;;;;17.63;16.30;;;32.90;51.10;;;;;;4987973;28;20464;-73
2021/05/31 11:07:59;;;;;;;17.10;16.10;;;32.60;52.40;;;;;;4999994;28;20580;-73
2021/05/31 11:10:30;;;;;;;18.10;16.80;;;32.70;52.50;;;;;;4998299;28;20591;-73
2021/05/31 11:12:57;;;;;;;17.90;16.90;;;33.60;53.10;;;;;;4998110;28;20489;-73
2021/05/31 11:15:34;;;;;;;18.37;17.20;;;33.30;50.30;;;;;;4996953;28;20468;-73
2021/05/31 11:18:01;;;;;;;16.87;15.77;;;33.30;48.40;;;;;;4993374;28;20748;-72
2021/05/31 11:20:29;;;;;;;17.47;16.30;;;33.60;49.10;;;;;;4998819;28;20469;-72
2021/05/31 11:22:57;;;;;;;16.97;16.00;;;32.00;50.80;;;;;;4996755;28;20464;-72
2021/05/31 11:25:24;;;;;;;18.50;17.30;;;31.80;50.70;;;;;;4995585;28;20465;-72
2021/05/31 11:27:54;;;;;;;17.07;16.07;;;32.40;49.40;;;;;;4998743;28;21106;-73
2021/05/31 11:30:24;;;;;;;17.40;16.10;;;32.20;51.40;;;;;;4999169;28;20981;-72
2021/05/31 11:32:53;;;;;;;17.37;16.03;;;31.80;49.00;;;;;;4993656;28;20497;-73
2021/05/31 11:35:20;;;;;;;16.83;15.73;;;32.30;50.50;;;;;;5001690;28;20462;-73
2021/05/31 11:37:48;;;;;;;17.13;15.63;;;32.30;50.50;;;;;;4991859;28;20828;-72
2021/05/31 11:40:21;;;;;;;16.60;15.60;;;33.00;50.20;;;;;;5000151;28;20488;-72
2021/05/31 11:42:50;;;;;;;18.17;17.07;;;33.50;49.50;;;;;;5001291;28;20461;-71
2021/05/31 11:45:19;;;;;;;16.50;15.60;;;33.50;48.00;;;;;;4999633;28;20498;-71
2021/05/31 11:47:52;;;;;;;17.47;16.07;;;33.20;47.30;;;;;;5005653;28;20799;-72
2021/05/31 11:50:22;;;;;;;17.10;16.00;;;33.90;46.70;;;;;;4998890;28;20562;-71
2021/05/31 11:52:48;;;;;;;17.00;15.50;;;34.50;45.10;;;;;;5010125;28;20993;-71
2021/05/31 11:55:17;;;;;;;17.40;16.17;;;34.10;45.80;;;;;;5007011;28;20484;-71
2021/05/31 11:57:44;;;;;;;16.97;15.97;;;33.20;46.60;;;;;;4997249;28;20984;-72
2021/05/31 12:00:17;;;;;;;17.20;16.23;;;33.90;45.30;;;;;;5003633;28;20460;-72
2021/05/31 12:02:43;;;;;;;16.77;15.73;;;32.10;45.30;;;;;;5006726;28;20465;-72
2021/05/31 12:05:10;;;;;;;15.70;14.23;;;31.20;46.90;;;;;;4995632;28;20462;-72
2021/05/31 12:07:43;;;;;;;18.37;14.97;;;31.30;47.10;;;;;;4998363;28;20486;-72
2021/05/31 12:10:12;;;;;;;16.07;15.07;;;31.20;47.90;;;;;;4996603;28;20964;-71
2021/05/31 12:12:41;;;;;;;15.80;14.70;;;30.60;46.80;;;;;;4992426;28;20498;-72
2021/05/31 12:15:12;;;;;;;16.30;15.13;;;30.50;47.30;;;;;;4994957;28;20987;-72
2021/05/31 12:17:40;;;;;;;16.40;14.90;;;30.90;47.30;;;;;;5000944;28;20468;-72
2021/05/31 12:20:08;;;;;;;16.40;15.30;;;31.40;46.40;;;;;;4999414;28;20501;-72
2021/05/31 12:22:38;;;;;;;16.73;15.73;;;31.30;47.50;;;;;;5004794;28;20703;-72
2021/05/31 12:25:08;;;;;;;17.23;16.23;;;32.50;45.90;;;;;;5009886;28;20976;-72
2021/05/31 12:27:36;;;;;;;18.23;17.03;;;33.60;44.50;;;;;;5004423;28;20468;-72
2021/05/31 12:30:05;;;;;;;16.87;15.70;;;34.80;42.80;;;;;;4993358;28;20572;-72
2021/05/31 12:32:32;;;;;;;16.87;15.67;;;35.30;42.60;;;;;;4993897;28;20524;-72
2021/05/31 12:35:03;;;;;;;15.73;14.93;;;34.20;42.90;;;;;;4997719;28;20545;-72
2021/05/31 12:37:31;;;;;;;16.13;15.23;;;34.00;42.90;;;;;;4995783;28;21119;-72
2021/05/31 12:39:59;;;;;;;15.97;14.90;;;32.00;43.30;;;;;;4995193;28;21170;-72